Jones, AL (36749)

5:50 PM CDT on July 27, 2017 (GMT -0500)
Kingston Pines | | Change Station

Elev 538 ft 32.55 °N, 86.55 °W | Updated 6 seconds ago

Partly Cloudy
Partly Cloudy
76.0 °F
Feels Like 76 °F
N
0.0
Wind Variable Wind from ESE

Today
High -- | Low -- °F
--% Chance of Precip.
Yesterday
High -- | Low -- °F
Precip. -- in
Pressure 29.96 in
Visibility 1.8 miles
Clouds Mostly Cloudy 4200 ft
Mostly Cloudy 5500 ft
Overcast 8000 ft
Heat Index 76 °F
Dew Point 71 °F
Humidity 86%
Rainfall 0.30 in
Snow Depth Not available.
5:58 AM 7:49 PM
Waxing Crescent, 24% visible
SPECI KMXF 272242Z AUTO 25004G18KT 1 3/4SM -RA BKN042 BKN055 OVC080 25/21 A2995 RMK AO2 VIS 1V1 3/4 DZB27E29RAB29 TSB00E15 SLP143
Pressure 29.96 in
Visibility 1.8 miles
Clouds Mostly Cloudy 4200 ft
Mostly Cloudy 5500 ft
Overcast 8000 ft
Heat Index 76 °F
Dew Point 71 °F
Humidity 86%
Rainfall 0.30 in
Snow Depth Not available.
5:58 AM 7:49 PM
Waxing Crescent, 24% visible
SPECI KMXF 272242Z AUTO 25004G18KT 1 3/4SM -RA BKN042 BKN055 OVC080 25/21 A2995 RMK AO2 VIS 1V1 3/4 DZB27E29RAB29 TSB00E15 SLP143

Get Severe Weather Alerts

Thanks for signing up!

Be on the lookout for a verification email in your inbox.

You'll start receiving the daily forecast at 6 AM.

×

10-Day Weather Forecast

Almanac

Astronomy

Jul. 27, 2017 Rise Set
Actual Time
Civil Twilight
Nautical Twilight
Astronomical Twilight
Moon
Length of Visible Light
Length of Day
Tomorrow will be .
, % of the Moon is Illuminated

Today's Extremes

State Highs State Lows

Community

WunderPhotos

Category 6

Welcome to Category 6. This is the collective home for Weather Underground's featured writeups by Dr. Jeff Masters (right), Bob Henson (left), Chris Burt, and other regular contributors.

Nearby

Air Quality

  Air Quality AQ Index Pollutant
Not available.

Snow Depth

Station Depth Elevation

Earthquake Activity

City Distance Mag. Time & Date
Minimum magnitude displayed is 2.5.

Coastal Water Temperatures

Place Temperature

Stations

Nearby Weather Stations

Station Location Temp. Windchill Dew Point Humidity Wind Precip. Elev Updated Type
                   

Watches & Warnings

There are currently no watches in effect.